Time;durP1;ratioP1;P1;durP2;ratioP2;P2;SDS_P1;SDS_P2;PMS_P1;PMS_P2;Temp;Humidity;BMP_temperature;BMP_pressure;BME280_temperature;BME280_humidity;BME280_pressure;Samples;Min_cycle;Max_cycle;Signal;HPM_P1;HPM_P2
2023/06/13 00:02:24;;;;;;;;;;;;;;;;;;5052758;28;19976;-74
2023/06/13 00:04:51;;;;;;;;;;;;;;;;;;5044105;28;20357;-74
2023/06/13 00:07:18;;;;;;;;;;;;;;;;;;5047546;28;20040;-77
2023/06/13 00:09:45;;;;;;;;;;;;;;;;;;5047316;28;19925;-74
2023/06/13 00:12:12;;;;;;;;;;;;;;;;;;5051206;28;19924;-75
2023/06/13 00:14:39;;;;;;;;;;;;;;;;;;5054183;28;19941;-75
2023/06/13 00:17:07;;;;;;;;;;;;;;;;;;5054271;28;20369;-75
2023/06/13 00:19:34;;;;;;;;;;;;;;;;;;5046222;28;20013;-75
2023/06/13 00:22:01;;;;;;;;;;;;;;;;;;5034792;28;19990;-75
2023/06/13 00:24:27;;;;;;;;;;;;;;;;;;5034478;28;19979;-75
2023/06/13 00:26:55;;;;;;;;;;;;;;;;;;5034355;28;20023;-75
2023/06/13 00:29:21;;;;;;;;;;;;;;;;;;5034522;28;19925;-75
2023/06/13 00:31:49;;;;;;;;;;;;;;;;;;5038904;28;20027;-75
2023/06/13 00:34:16;;;;;;;;;;;;;;;;;;5053869;28;19968;-76
2023/06/13 00:36:44;;;;;;;;;;;;;;;;;;5053913;28;19932;-75
2023/06/13 00:39:11;;;;;;;;;;;;;;;;;;5054067;28;19933;-75
2023/06/13 00:41:38;;;;;;;;;;;;;;;;;;5053671;28;19931;-75
2023/06/13 00:44:05;;;;;;;;;;;;;;;;;;5061784;28;20015;-75
2023/06/13 00:46:32;;;;;;;;;;;;;;;;;;5054099;28;19932;-75
2023/06/13 00:48:59;;;;;;;;;;;;;;;;;;5044831;28;19925;-76
2023/06/13 00:51:27;;;;;;;;;;;;;;;;;;5053118;28;20023;-75
2023/06/13 00:53:55;;;;;;;;;;;;;;;;;;5054439;28;19924;-77
2023/06/13 00:56:29;;;;;;;;;;;;;;;;;;5040578;28;20020;-78
2023/06/13 00:58:56;;;;;;;;;;;;;;;;;;5050710;28;19960;-76
2023/06/13 01:01:24;;;;;;;;;;;;;;;;;;5036998;28;20019;-77
2023/06/13 01:03:52;;;;;;;;;;;;;;;;;;5049441;28;19931;-76
2023/06/13 01:06:19;;;;;;;;;;;;;;;;;;5040756;28;19930;-76
2023/06/13 01:08:46;;;;;;;;;;;;;;;;;;5036866;28;19987;-76
2023/06/13 01:11:13;;;;;;;;;;;;;;;;;;5052245;28;20007;-76
2023/06/13 01:13:40;;;;;;;;;;;;;;;;;;5038262;28;19932;-76
2023/06/13 01:16:07;;;;;;;;;;;;;;;;;;5048492;28;20276;-77
2023/06/13 01:18:35;;;;;;;;;;;;;;;;;;5055321;28;20351;-77
2023/06/13 01:21:02;;;;;;;;;;;;;;;;;;5053862;28;20457;-76
2023/06/13 01:23:30;;;;;;;;;;;;;;;;;;5041374;28;19932;-76
2023/06/13 01:25:57;;;;;;;;;;;;;;;;;;5050360;28;20308;-77
2023/06/13 01:28:24;;;;;;;;;;;;;;;;;;5054364;28;19970;-75
2023/06/13 01:30:51;;;;;;;;;;;;;;;;;;5060304;28;20448;-75
2023/06/13 01:33:18;;;;;;;;;;;;;;;;;;5060769;28;20362;-75
2023/06/13 01:35:45;;;;;;;;;;;;;;;;;;5053967;28;20332;-75
2023/06/13 01:38:12;;;;;;;;;;;;;;;;;;5041186;28;19925;-74
2023/06/13 01:40:39;;;;;;;;;;;;;;;;;;5036864;28;19952;-74
2023/06/13 01:43:06;;;;;;;;;;;;;;;;;;5039026;28;20004;-73
2023/06/13 01:45:33;;;;;;;;;;;;;;;;;;5054515;28;19960;-74
2023/06/13 01:48:00;;;;;;;;;;;;;;;;;;5054279;28;19992;-74
2023/06/13 01:50:27;;;;;;;;;;;;;;;;;;5052860;28;20371;-75
2023/06/13 01:52:54;;;;;;;;;;;;;;;;;;5039810;28;19940;-75
2023/06/13 01:55:21;;;;;;;;;;;;;;;;;;5033930;28;19983;-76
2023/06/13 01:57:48;;;;;;;;;;;;;;;;;;5033354;28;20017;-75
2023/06/13 02:00:15;;;;;;;;;;;;;;;;;;5050071;28;20012;-76
2023/06/13 02:02:42;;;;;;;;;;;;;;;;;;5050957;28;19976;-75
2023/06/13 02:05:11;;;;;;;;;;;;;;;;;;5053041;28;19980;-75
2023/06/13 02:07:38;;;;;;;;;;;;;;;;;;5061715;28;19970;-76
2023/06/13 02:10:05;;;;;;;;;;;;;;;;;;5061457;28;19924;-75
2023/06/13 02:12:32;;;;;;;;;;;;;;;;;;5035226;28;20526;-75
2023/06/13 02:15:00;;;;;;;;;;;;;;;;;;5040821;28;20016;-75
2023/06/13 02:17:27;;;;;;;;;;;;;;;;;;5051466;28;19932;-76
2023/06/13 02:19:54;;;;;;;;;;;;;;;;;;5052790;28;19925;-76
2023/06/13 02:22:21;;;;;;;;;;;;;;;;;;5053393;28;20016;-76
2023/06/13 02:24:48;;;;;;;;;;;;;;;;;;5053114;28;20020;-75
2023/06/13 02:27:15;;;;;;;;;;;;;;;;;;5052840;28;19925;-76
2023/06/13 02:29:44;;;;;;;;;;;;;;;;;;5051786;28;19964;-76
2023/06/13 02:32:10;;;;;;;;;;;;;;;;;;5052535;28;19964;-77
2023/06/13 02:34:37;;;;;;;;;;;;;;;;;;5052343;28;19924;-76
2023/06/13 02:37:04;;;;;;;;;;;;;;;;;;5052378;28;19925;-76
2023/06/13 02:39:31;;;;;;;;;;;;;;;;;;5050617;28;20020;-76
2023/06/13 02:41:58;;;;;;;;;;;;;;;;;;5052661;28;20019;-75
2023/06/13 02:44:25;;;;;;;;;;;;;;;;;;5051666;28;20475;-76
2023/06/13 02:46:55;;;;;;;;;;;;;;;;;;5052386;28;19968;-76
2023/06/13 02:49:22;;;;;;;;;;;;;;;;;;5052718;28;19964;-76
2023/06/13 02:51:49;;;;;;;;;;;;;;;;;;5052018;28;19928;-75
2023/06/13 02:54:16;;;;;;;;;;;;;;;;;;5052059;28;19924;-76
2023/06/13 02:56:43;;;;;;;;;;;;;;;;;;5051108;28;20011;-75
2023/06/13 02:59:10;;;;;;;;;;;;;;;;;;5052127;28;20015;-76
2023/06/13 03:01:37;;;;;;;;;;;;;;;;;;5051380;28;20340;-75
2023/06/13 03:04:04;;;;;;;;;;;;;;;;;;5054322;28;19928;-76
2023/06/13 03:06:31;;;;;;;;;;;;;;;;;;5056005;28;20019;-75
2023/06/13 03:08:59;;;;;;;;;;;;;;;;;;5056688;28;19972;-77
2023/06/13 03:11:26;;;;;;;;;;;;;;;;;;5035713;28;20000;-75
2023/06/13 03:13:52;;;;;;;;;;;;;;;;;;5045659;28;20011;-76
2023/06/13 03:16:21;;;;;;;;;;;;;;;;;;5050154;28;20011;-75
2023/06/13 03:18:48;;;;;;;;;;;;;;;;;;5054718;28;19925;-75
2023/06/13 03:21:16;;;;;;;;;;;;;;;;;;5055512;28;19925;-74
2023/06/13 03:23:43;;;;;;;;;;;;;;;;;;5051685;28;19925;-73
2023/06/13 03:26:10;;;;;;;;;;;;;;;;;;5043814;28;19933;-74
2023/06/13 03:28:38;;;;;;;;;;;;;;;;;;5053919;28;19925;-75
2023/06/13 03:31:08;;;;;;;;;;;;;;;;;;5055215;28;19932;-75
2023/06/13 03:33:35;;;;;;;;;;;;;;;;;;5054079;28;19925;-75
2023/06/13 03:36:03;;;;;;;;;;;;;;;;;;5056156;28;19928;-76
2023/06/13 03:38:30;;;;;;;;;;;;;;;;;;5056999;28;19929;-76
2023/06/13 03:40:57;;;;;;;;;;;;;;;;;;5048302;28;19959;-76
2023/06/13 03:43:25;;;;;;;;;;;;;;;;;;5056338;28;19925;-75
2023/06/13 03:45:53;;;;;;;;;;;;;;;;;;5056665;28;19964;-76
2023/06/13 03:48:25;;;;;;;;;;;;;;;;;;5058980;28;19928;-76
2023/06/13 03:50:53;;;;;;;;;;;;;;;;;;5056252;28;19924;-76
2023/06/13 03:53:20;;;;;;;;;;;;;;;;;;5055913;28;19925;-76
2023/06/13 03:55:47;;;;;;;;;;;;;;;;;;5055814;28;19925;-76
2023/06/13 03:58:15;;;;;;;;;;;;;;;;;;5056378;28;20490;-76
2023/06/13 04:00:44;;;;;;;;;;;;;;;;;;5054087;28;19982;-76
2023/06/13 04:03:11;;;;;;;;;;;;;;;;;;5054428;28;20604;-75
2023/06/13 04:05:38;;;;;;;;;;;;;;;;;;5055177;28;20383;-75
2023/06/13 04:08:06;;;;;;;;;;;;;;;;;;5050572;28;20363;-76
2023/06/13 04:10:33;;;;;;;;;;;;;;;;;;5037474;28;19929;-77
2023/06/13 04:12:59;;;;;;;;;;;;;;;;;;5041302;28;20016;-77
2023/06/13 04:15:26;;;;;;;;;;;;;;;;;;5069867;28;20457;-76
2023/06/13 04:17:56;;;;;;;;;;;;;;;;;;5066882;28;20348;-76
2023/06/13 04:20:24;;;;;;;;;;;;;;;;;;5034832;28;19925;-75
2023/06/13 04:22:52;;;;;;;;;;;;;;;;;;5043526;28;19924;-74
2023/06/13 04:25:19;;;;;;;;;;;;;;;;;;5054359;28;19955;-74
2023/06/13 04:27:48;;;;;;;;;;;;;;;;;;5047387;28;20430;-74
2023/06/13 04:30:16;;;;;;;;;;;;;;;;;;5052445;28;20024;-78
2023/06/13 04:32:45;;;;;;;;;;;;;;;;;;5054579;28;19932;-79
2023/06/13 04:35:16;;;;;;;;;;;;;;;;;;5061726;28;20465;-79
2023/06/13 04:37:43;;;;;;;;;;;;;;;;;;5043826;28;19948;-79
2023/06/13 04:40:13;;;;;;;;;;;;;;;;;;5045328;28;19925;-78
2023/06/13 04:42:47;;;;;;;;;;;;;;;;;;5052810;28;19924;-78
2023/06/13 04:45:15;;;;;;;;;;;;;;;;;;5035295;28;19936;-79
2023/06/13 04:47:45;;;;;;;;;;;;;;;;;;5044197;28;19962;-78
2023/06/13 04:50:11;;;;;;;;;;;;;;;;;;5041175;28;19931;-78
2023/06/13 04:52:40;;;;;;;;;;;;;;;;;;5047102;28;19925;-79
2023/06/13 04:55:07;;;;;;;;;;;;;;;;;;5050200;28;20003;-79
2023/06/13 04:57:34;;;;;;;;;;;;;;;;;;5052896;28;20020;-82
2023/06/13 05:00:06;;;;;;;;;;;;;;;;;;5037829;28;19925;-83
2023/06/13 05:02:34;;;;;;;;;;;;;;;;;;5036268;28;19936;-82
2023/06/13 05:05:03;;;;;;;;;;;;;;;;;;5034359;28;20015;-82
2023/06/13 05:07:30;;;;;;;;;;;;;;;;;;5039656;28;19931;-82
2023/06/13 05:09:57;;;;;;;;;;;;;;;;;;5038496;28;20323;-82
2023/06/13 05:12:24;;;;;;;;;;;;;;;;;;5033977;28;20012;-83
2023/06/13 05:14:51;;;;;;;;;;;;;;;;;;5042125;28;19964;-74
2023/06/13 05:17:18;;;;;;;;;;;;;;;;;;5052888;28;20308;-74
2023/06/13 05:19:45;;;;;;;;;;;;;;;;;;5047399;28;19925;-74
2023/06/13 05:22:12;;;;;;;;;;;;;;;;;;5033538;28;19925;-74
2023/06/13 05:24:39;;;;;;;;;;;;;;;;;;5033775;28;20336;-74
2023/06/13 05:27:07;;;;;;;;;;;;;;;;;;5049722;28;19951;-75
2023/06/13 05:29:34;;;;;;;;;;;;;;;;;;5042909;28;20269;-75
2023/06/13 05:32:01;;;;;;;;;;;;;;;;;;5040877;28;20019;-72
2023/06/13 05:34:28;;;;;;;;;;;;;;;;;;5043507;28;19929;-72
2023/06/13 05:36:55;;;;;;;;;;;;;;;;;;5047248;28;20008;-72
2023/06/13 05:39:22;;;;;;;;;;;;;;;;;;5043285;28;19978;-72
2023/06/13 05:41:49;;;;;;;;;;;;;;;;;;5047994;28;20023;-73
2023/06/13 05:44:16;;;;;;;;;;;;;;;;;;5051650;28;20008;-73
2023/06/13 05:46:43;;;;;;;;;;;;;;;;;;5033291;28;19986;-73
2023/06/13 05:49:10;;;;;;;;;;;;;;;;;;5043175;28;19925;-73
2023/06/13 05:51:37;;;;;;;;;;;;;;;;;;5043985;28;19928;-74
2023/06/13 05:54:05;;;;;;;;;;;;;;;;;;5047473;28;19928;-77
2023/06/13 05:56:33;;;;;;;;;;;;;;;;;;5044473;28;19928;-78
2023/06/13 05:59:00;;;;;;;;;;;;;;;;;;5037151;28;19925;-80
2023/06/13 06:01:29;;;;;;;;;;;;;;;;;;5043927;28;20015;-80
2023/06/13 06:03:56;;;;;;;;;;;;;;;;;;5048259;28;20287;-78
2023/06/13 06:06:23;;;;;;;;;;;;;;;;;;5032828;28;20008;-74
2023/06/13 06:08:50;;;;;;;;;;;;;;;;;;5036597;28;20663;-79
2023/06/13 06:11:17;;;;;;;;;;;;;;;;;;5039916;28;20011;-78
2023/06/13 06:13:44;;;;;;;;;;;;;;;;;;5049008;28;20024;-77
2023/06/13 06:16:11;;;;;;;;;;;;;;;;;;5033125;28;19935;-74
2023/06/13 06:18:38;;;;;;;;;;;;;;;;;;5037224;28;20015;-76
2023/06/13 06:21:06;;;;;;;;;;;;;;;;;;5051951;28;19978;-75
2023/06/13 06:23:33;;;;;;;;;;;;;;;;;;5041168;28;19928;-73
2023/06/13 06:26:00;;;;;;;;;;;;;;;;;;5049112;28;20301;-75
2023/06/13 06:28:27;;;;;;;;;;;;;;;;;;5042709;28;19925;-74
2023/06/13 06:30:54;;;;;;;;;;;;;;;;;;5040312;28;20019;-74
2023/06/13 06:33:21;;;;;;;;;;;;;;;;;;5042723;28;19986;-72
2023/06/13 06:35:48;;;;;;;;;;;;;;;;;;5041018;28;19932;-73
2023/06/13 06:38:15;;;;;;;;;;;;;;;;;;5044501;28;20020;-72
2023/06/13 06:40:42;;;;;;;;;;;;;;;;;;5043570;28;20402;-73
2023/06/13 06:43:09;;;;;;;;;;;;;;;;;;5047273;28;19933;-72
2023/06/13 06:45:36;;;;;;;;;;;;;;;;;;5046821;28;20016;-72
2023/06/13 06:48:03;;;;;;;;;;;;;;;;;;5053514;28;20024;-72
2023/06/13 06:50:30;;;;;;;;;;;;;;;;;;5051803;28;20435;-74
2023/06/13 06:52:57;;;;;;;;;;;;;;;;;;5046093;28;19932;-75
2023/06/13 06:55:24;;;;;;;;;;;;;;;;;;5042192;28;19981;-74
2023/06/13 06:57:53;;;;;;;;;;;;;;;;;;5045980;28;20439;-72
2023/06/13 07:00:20;;;;;;;;;;;;;;;;;;5042813;28;20399;-73
2023/06/13 07:02:47;;;;;;;;;;;;;;;;;;5061958;28;19924;-73
2023/06/13 07:05:15;;;;;;;;;;;;;;;;;;5049234;28;19968;-73
2023/06/13 07:07:43;;;;;;;;;;;;;;;;;;5047662;28;19944;-70
2023/06/13 07:10:10;;;;;;;;;;;;;;;;;;5060925;28;20054;-72
2023/06/13 07:12:37;;;;;;;;;;;;;;;;;;5074747;28;19924;-73
2023/06/13 07:15:04;;;;;;;;;;;;;;;;;;5048144;28;19987;-73
2023/06/13 07:17:31;;;;;;;;;;;;;;;;;;5037977;28;20003;-73
2023/06/13 07:19:58;;;;;;;;;;;;;;;;;;5044923;28;20020;-73
2023/06/13 07:22:25;;;;;;;;;;;;;;;;;;5047511;28;19965;-73
2023/06/13 07:24:52;;;;;;;;;;;;;;;;;;5041963;28;20372;-72
2023/06/13 07:27:19;;;;;;;;;;;;;;;;;;5047214;28;20031;-72
2023/06/13 07:29:46;;;;;;;;;;;;;;;;;;5046016;28;20008;-71
2023/06/13 07:32:13;;;;;;;;;;;;;;;;;;5048657;28;20015;-70
2023/06/13 07:34:40;;;;;;;;;;;;;;;;;;5042694;28;19924;-74
2023/06/13 07:37:07;;;;;;;;;;;;;;;;;;5041449;28;20012;-72
2023/06/13 07:39:34;;;;;;;;;;;;;;;;;;5050333;28;19976;-72
2023/06/13 07:42:02;;;;;;;;;;;;;;;;;;5045639;28;19970;-72
2023/06/13 07:44:29;;;;;;;;;;;;;;;;;;5045152;28;20011;-72
2023/06/13 07:46:56;;;;;;;;;;;;;;;;;;5051916;28;20571;-73
2023/06/13 07:49:23;;;;;;;;;;;;;;;;;;5040447;28;20372;-72
2023/06/13 07:51:50;;;;;;;;;;;;;;;;;;5039178;28;19979;-73
2023/06/13 07:54:17;;;;;;;;;;;;;;;;;;5049705;28;19971;-73
2023/06/13 07:56:44;;;;;;;;;;;;;;;;;;5058355;28;19964;-73
2023/06/13 07:59:11;;;;;;;;;;;;;;;;;;5047344;28;20024;-73
2023/06/13 08:01:38;;;;;;;;;;;;;;;;;;5045411;28;19925;-73
2023/06/13 08:04:05;;;;;;;;;;;;;;;;;;5046864;28;19936;-73
2023/06/13 08:06:32;;;;;;;;;;;;;;;;;;5043192;28;20012;-73
2023/06/13 08:08:59;;;;;;;;;;;;;;;;;;5043351;28;20020;-73
2023/06/13 08:11:27;;;;;;;;;;;;;;;;;;5041828;28;19929;-73
2023/06/13 08:13:54;;;;;;;;;;;;;;;;;;5045780;28;20020;-74
2023/06/13 08:16:21;;;;;;;;;;;;;;;;;;5042474;28;19932;-75
2023/06/13 08:18:48;;;;;;;;;;;;;;;;;;5043208;28;19932;-73
2023/06/13 08:21:15;;;;;;;;;;;;;;;;;;5044557;28;20312;-73
2023/06/13 08:23:42;;;;;;;;;;;;;;;;;;5042774;28;19925;-75
2023/06/13 08:26:09;;;;;;;;;;;;;;;;;;5039765;28;20057;-74
2023/06/13 08:28:36;;;;;;;;;;;;;;;;;;5035114;28;20380;-72
2023/06/13 08:31:03;;;;;;;;;;;;;;;;;;5046921;28;20103;-72
2023/06/13 08:33:30;;;;;;;;;;;;;;;;;;5044074;28;20368;-75
2023/06/13 08:35:57;;;;;;;;;;;;;;;;;;5045011;28;19931;-73
2023/06/13 08:38:25;;;;;;;;;;;;;;;;;;5049106;28;20024;-72
2023/06/13 08:40:52;;;;;;;;;;;;;;;;;;5044476;28;19933;-73
2023/06/13 08:43:19;;;;;;;;;;;;;;;;;;5036960;28;20006;-73
2023/06/13 08:45:46;;;;;;;;;;;;;;;;;;5034785;28;20011;-73
2023/06/13 08:48:12;;;;;;;;;;;;;;;;;;5046051;28;19951;-73
2023/06/13 08:50:39;;;;;;;;;;;;;;;;;;5042336;28;19924;-73
2023/06/13 08:53:06;;;;;;;;;;;;;;;;;;5042698;28;19925;-72
2023/06/13 08:55:36;;;;;;;;;;;;;;;;;;5046153;28;20004;-73
2023/06/13 08:58:03;;;;;;;;;;;;;;;;;;5041628;28;19933;-69
2023/06/13 09:00:33;;;;;;;;;;;;;;;;;;5044362;28;20007;-68
2023/06/13 09:03:00;;;;;;;;;;;;;;;;;;5048453;28;19928;-68
2023/06/13 09:05:27;;;;;;;;;;;;;;;;;;5052736;28;20024;-68
2023/06/13 09:07:54;;;;;;;;;;;;;;;;;;5047347;28;20019;-68
2023/06/13 09:10:21;;;;;;;;;;;;;;;;;;5034866;28;19968;-68
2023/06/13 09:12:51;;;;;;;;;;;;;;;;;;5035505;28;20684;-68
2023/06/13 09:15:18;;;;;;;;;;;;;;;;;;5042076;28;19924;-68
2023/06/13 09:17:45;;;;;;;;;;;;;;;;;;5043818;28;20007;-68
2023/06/13 09:20:12;;;;;;;;;;;;;;;;;;5043079;28;19929;-68
2023/06/13 09:22:38;;;;;;;;;;;;;;;;;;5045336;28;20028;-69
2023/06/13 09:25:06;;;;;;;;;;;;;;;;;;5045402;28;19929;-69
2023/06/13 09:27:33;;;;;;;;;;;;;;;;;;5042288;28;19929;-68
2023/06/13 09:30:00;;;;;;;;;;;;;;;;;;5046541;28;19929;-69
2023/06/13 09:32:27;;;;;;;;;;;;;;;;;;5041954;28;19933;-68
2023/06/13 09:34:55;;;;;;;;;;;;;;;;;;5035448;28;19960;-68
2023/06/13 09:37:24;;;;;;;;;;;;;;;;;;5044907;28;20418;-68
2023/06/13 09:39:51;;;;;;;;;;;;;;;;;;5047236;28;20490;-68
2023/06/13 09:42:18;;;;;;;;;;;;;;;;;;5044260;28;19933;-68
2023/06/13 09:44:45;;;;;;;;;;;;;;;;;;5048495;28;20016;-68
2023/06/13 09:47:12;;;;;;;;;;;;;;;;;;5041948;28;20016;-68
2023/06/13 09:49:39;;;;;;;;;;;;;;;;;;5046325;28;19931;-67
2023/06/13 09:52:06;;;;;;;;;;;;;;;;;;5039590;28;20348;-68
2023/06/13 09:54:33;;;;;;;;;;;;;;;;;;5038365;28;20000;-69
2023/06/13 09:57:00;;;;;;;;;;;;;;;;;;5038541;28;20019;-69
2023/06/13 09:59:27;;;;;;;;;;;;;;;;;;5045512;28;19928;-68
2023/06/13 10:01:54;;;;;;;;;;;;;;;;;;5043339;28;20019;-68
2023/06/13 10:04:23;;;;;;;;;;;;;;;;;;5045354;28;20011;-68
2023/06/13 10:06:50;;;;;;;;;;;;;;;;;;5050439;28;19925;-68
2023/06/13 10:09:17;;;;;;;;;;;;;;;;;;5044914;28;20277;-68
2023/06/13 10:11:44;;;;;;;;;;;;;;;;;;5045277;28;20035;-68
2023/06/13 10:14:11;;;;;;;;;;;;;;;;;;5042498;28;20028;-68
2023/06/13 10:16:38;;;;;;;;;;;;;;;;;;5049104;28;20368;-69
2023/06/13 10:19:05;;;;;;;;;;;;;;;;;;5047725;28;20423;-69
2023/06/13 10:21:32;;;;;;;;;;;;;;;;;;5046906;28;20351;-69
2023/06/13 10:23:59;;;;;;;;;;;;;;;;;;5046693;28;20024;-69
2023/06/13 10:26:27;;;;;;;;;;;;;;;;;;5041808;28;19980;-69
2023/06/13 10:28:54;;;;;;;;;;;;;;;;;;5044422;28;20316;-69
2023/06/13 10:31:26;;;;;;;;;;;;;;;;;;5040613;28;19999;-69
2023/06/13 10:33:53;;;;;;;;;;;;;;;;;;5044795;28;19931;-69
2023/06/13 10:36:20;;;;;;;;;;;;;;;;;;5039460;28;19925;-69
2023/06/13 10:38:48;;;;;;;;;;;;;;;;;;5048206;28;20380;-69
2023/06/13 10:41:15;;;;;;;;;;;;;;;;;;5042166;28;20032;-69
2023/06/13 10:43:42;;;;;;;;;;;;;;;;;;5039663;28;20007;-69
2023/06/13 10:46:09;;;;;;;;;;;;;;;;;;5047060;28;19924;-69
2023/06/13 10:48:37;;;;;;;;;;;;;;;;;;5039001;28;20396;-70
2023/06/13 10:51:03;;;;;;;;;;;;;;;;;;5047854;28;20394;-68
2023/06/13 10:53:31;;;;;;;;;;;;;;;;;;5048593;28;19968;-70
2023/06/13 10:55:58;;;;;;;;;;;;;;;;;;5032668;28;20370;-70
2023/06/13 10:58:25;;;;;;;;;;;;;;;;;;5037818;28;19995;-70
2023/06/13 11:00:52;;;;;;;;;;;;;;;;;;5042901;28;20007;-70
2023/06/13 11:03:19;;;;;;;;;;;;;;;;;;5041805;28;20099;-69
2023/06/13 11:05:46;;;;;;;;;;;;;;;;;;5056870;28;19956;-70
2023/06/13 11:08:13;;;;;;;;;;;;;;;;;;5048069;28;19979;-70
2023/06/13 11:10:40;;;;;;;;;;;;;;;;;;5045193;28;20396;-70
2023/06/13 11:13:09;;;;;;;;;;;;;;;;;;5048561;28;20011;-69
2023/06/13 11:15:36;;;;;;;;;;;;;;;;;;5042140;28;20100;-69
2023/06/13 11:18:03;;;;;;;;;;;;;;;;;;5043107;28;20403;-70
2023/06/13 11:20:30;;;;;;;;;;;;;;;;;;5051221;28;19967;-71
2023/06/13 11:22:57;;;;;;;;;;;;;;;;;;5045175;28;20015;-70
2023/06/13 11:25:24;;;;;;;;;;;;;;;;;;5047647;28;19925;-70
2023/06/13 11:27:51;;;;;;;;;;;;;;;;;;5044379;28;19972;-70
2023/06/13 11:30:18;;;;;;;;;;;;;;;;;;5041197;28;19931;-70
2023/06/13 11:32:45;;;;;;;;;;;;;;;;;;5045357;28;19931;-69
2023/06/13 11:35:12;;;;;;;;;;;;;;;;;;5053920;28;19925;-69
2023/06/13 11:37:44;;;;;;;;;;;;;;;;;;5054878;28;19986;-68
2023/06/13 11:40:10;;;;;;;;;;;;;;;;;;5048385;28;19932;-69
2023/06/13 11:42:37;;;;;;;;;;;;;;;;;;5045491;28;19964;-69
2023/06/13 11:45:04;;;;;;;;;;;;;;;;;;5035089;28;21946;-69
2023/06/13 11:47:31;;;;;;;;;;;;;;;;;;5041681;28;20039;-69
2023/06/13 11:49:59;;;;;;;;;;;;;;;;;;5044333;28;19979;-68
2023/06/13 11:52:26;;;;;;;;;;;;;;;;;;5053652;28;19925;-69
2023/06/13 11:54:54;;;;;;;;;;;;;;;;;;5050557;28;20029;-70
2023/06/13 11:57:21;;;;;;;;;;;;;;;;;;5040636;28;19978;-70
2023/06/13 11:59:48;;;;;;;;;;;;;;;;;;5046137;28;20012;-69
2023/06/13 12:02:15;;;;;;;;;;;;;;;;;;5048829;28;20011;-69
2023/06/13 12:04:42;;;;;;;;;;;;;;;;;;5040764;28;19925;-69
2023/06/13 12:07:09;;;;;;;;;;;;;;;;;;5046870;28;20382;-69
2023/06/13 12:09:36;;;;;;;;;;;;;;;;;;5048571;28;20397;-69
2023/06/13 12:12:03;;;;;;;;;;;;;;;;;;5051031;28;20530;-70
2023/06/13 12:14:31;;;;;;;;;;;;;;;;;;5042629;28;20396;-70
2023/06/13 12:16:59;;;;;;;;;;;;;;;;;;5033938;28;19929;-70
2023/06/13 12:19:26;;;;;;;;;;;;;;;;;;5037043;28;20296;-69
2023/06/13 12:21:53;;;;;;;;;;;;;;;;;;5045490;28;19991;-70
2023/06/13 12:24:20;;;;;;;;;;;;;;;;;;5060953;28;19924;-69
2023/06/13 12:26:48;;;;;;;;;;;;;;;;;;5050858;28;19995;-69
2023/06/13 12:29:16;;;;;;;;;;;;;;;;;;5051136;28;20054;-70
2023/06/13 12:31:44;;;;;;;;;;;;;;;;;;5037357;28;19925;-70
2023/06/13 12:34:13;;;;;;;;;;;;;;;;;;5047194;28;19933;-69
2023/06/13 12:36:44;;;;;;;;;;;;;;;;;;5048529;28;20402;-69
2023/06/13 12:39:11;;;;;;;;;;;;;;;;;;5046251;28;20003;-70
2023/06/13 12:41:38;;;;;;;;;;;;;;;;;;5050604;28;19972;-69
2023/06/13 12:44:07;;;;;;;;;;;;;;;;;;5044108;28;19933;-69
2023/06/13 12:46:38;;;;;;;;;;;;;;;;;;5033924;28;19925;-70
2023/06/13 12:49:05;;;;;;;;;;;;;;;;;;5046028;28;19932;-71
2023/06/13 12:51:32;;;;;;;;;;;;;;;;;;5050162;28;19968;-70
2023/06/13 12:53:59;;;;;;;;;;;;;;;;;;5046052;28;19984;-70
2023/06/13 12:56:26;;;;;;;;;;;;;;;;;;5052677;28;19933;-72
2023/06/13 12:58:53;;;;;;;;;;;;;;;;;;5045201;28;19933;-72
2023/06/13 13:01:20;;;;;;;;;;;;;;;;;;5051695;28;19925;-72
2023/06/13 13:03:47;;;;;;;;;;;;;;;;;;5047083;28;19972;-72
2023/06/13 13:06:14;;;;;;;;;;;;;;;;;;5038773;28;19964;-72
2023/06/13 13:08:41;;;;;;;;;;;;;;;;;;5050925;28;20419;-73
2023/06/13 13:11:08;;;;;;;;;;;;;;;;;;5053310;28;20000;-72
2023/06/13 13:13:35;;;;;;;;;;;;;;;;;;5047263;28;20380;-72
2023/06/13 13:16:02;;;;;;;;;;;;;;;;;;5033996;28;19960;-72
2023/06/13 13:18:29;;;;;;;;;;;;;;;;;;5045458;28;19931;-71
2023/06/13 13:20:56;;;;;;;;;;;;;;;;;;5050280;28;20019;-71
2023/06/13 13:23:23;;;;;;;;;;;;;;;;;;5049170;28;20003;-71
2023/06/13 13:25:50;;;;;;;;;;;;;;;;;;5045917;28;20020;-69
2023/06/13 13:28:17;;;;;;;;;;;;;;;;;;5043243;28;19945;-69
2023/06/13 13:30:44;;;;;;;;;;;;;;;;;;5051724;28;19976;-69
2023/06/13 13:33:11;;;;;;;;;;;;;;;;;;5052366;28;20013;-69
2023/06/13 13:35:38;;;;;;;;;;;;;;;;;;5042746;28;20398;-68
2023/06/13 13:38:05;;;;;;;;;;;;;;;;;;5047489;28;20380;-69
2023/06/13 13:40:32;;;;;;;;;;;;;;;;;;5047713;28;20011;-70
2023/06/13 13:42:59;;;;;;;;;;;;;;;;;;5049003;28;19925;-70
2023/06/13 13:45:26;;;;;;;;;;;;;;;;;;5039858;28;20020;-69
2023/06/13 13:47:53;;;;;;;;;;;;;;;;;;5047459;28;20016;-69
2023/06/13 13:50:20;;;;;;;;;;;;;;;;;;5052569;28;20311;-69
2023/06/13 13:52:47;;;;;;;;;;;;;;;;;;5046193;28;19955;-70
2023/06/13 13:55:15;;;;;;;;;;;;;;;;;;5047035;28;19999;-69
2023/06/13 13:57:42;;;;;;;;;;;;;;;;;;5040418;28;19932;-69
2023/06/13 14:00:09;;;;;;;;;;;;;;;;;;5039844;28;20296;-69
2023/06/13 14:02:36;;;;;;;;;;;;;;;;;;5039714;28;19929;-69
2023/06/13 14:05:03;;;;;;;;;;;;;;;;;;5033170;28;20304;-70
2023/06/13 14:07:30;;;;;;;;;;;;;;;;;;5043235;28;19968;-70
2023/06/13 14:09:57;;;;;;;;;;;;;;;;;;5044843;28;19968;-69
2023/06/13 14:12:24;;;;;;;;;;;;;;;;;;5044733;28;19984;-69
2023/06/13 14:14:51;;;;;;;;;;;;;;;;;;5044750;28;19994;-69
2023/06/13 14:17:18;;;;;;;;;;;;;;;;;;5049912;28;20272;-71
2023/06/13 14:19:47;;;;;;;;;;;;;;;;;;5039523;28;20007;-70
2023/06/13 14:22:14;;;;;;;;;;;;;;;;;;5043286;28;19978;-70
2023/06/13 14:24:41;;;;;;;;;;;;;;;;;;5043453;28;19937;-71
2023/06/13 14:27:09;;;;;;;;;;;;;;;;;;5041708;28;19932;-71
2023/06/13 14:29:36;;;;;;;;;;;;;;;;;;5041379;28;19929;-71
2023/06/13 14:32:04;;;;;;;;;;;;;;;;;;5050852;28;20359;-70
2023/06/13 14:34:31;;;;;;;;;;;;;;;;;;5045693;28;20368;-70
2023/06/13 14:36:58;;;;;;;;;;;;;;;;;;5041810;28;19972;-71
2023/06/13 14:39:25;;;;;;;;;;;;;;;;;;5045425;28;19925;-71
2023/06/13 14:41:52;;;;;;;;;;;;;;;;;;5040903;28;20118;-71
2023/06/13 14:44:19;;;;;;;;;;;;;;;;;;5042610;28;19943;-71
2023/06/13 14:46:46;;;;;;;;;;;;;;;;;;5045014;28;19925;-70
2023/06/13 14:49:13;;;;;;;;;;;;;;;;;;5045800;28;20131;-71
2023/06/13 14:51:41;;;;;;;;;;;;;;;;;;5042666;28;19975;-70
2023/06/13 14:54:08;;;;;;;;;;;;;;;;;;5048542;28;19929;-71
2023/06/13 14:56:35;;;;;;;;;;;;;;;;;;5032430;28;20031;-69
2023/06/13 14:59:03;;;;;;;;;;;;;;;;;;5043452;28;19928;-70
2023/06/13 15:01:31;;;;;;;;;;;;;;;;;;5050890;28;19929;-71
2023/06/13 15:04:00;;;;;;;;;;;;;;;;;;5051439;28;19929;-71
2023/06/13 15:06:27;;;;;;;;;;;;;;;;;;5054323;28;20407;-70
2023/06/13 15:08:54;;;;;;;;;;;;;;;;;;5049771;28;20176;-71
2023/06/13 15:11:21;;;;;;;;;;;;;;;;;;5054107;28;20012;-70
2023/06/13 15:13:48;;;;;;;;;;;;;;;;;;5054315;28;19987;-70
2023/06/13 15:16:15;;;;;;;;;;;;;;;;;;5036005;28;19971;-70
2023/06/13 15:18:42;;;;;;;;;;;;;;;;;;5048055;28;19991;-70
2023/06/13 15:21:09;;;;;;;;;;;;;;;;;;5048498;28;19929;-71
2023/06/13 15:23:36;;;;;;;;;;;;;;;;;;5049251;28;19925;-71
2023/06/13 15:26:04;;;;;;;;;;;;;;;;;;5051117;28;19968;-70
2023/06/13 15:28:31;;;;;;;;;;;;;;;;;;5050919;28;20263;-70
2023/06/13 15:30:58;;;;;;;;;;;;;;;;;;5052377;28;19925;-70
2023/06/13 15:33:25;;;;;;;;;;;;;;;;;;5039772;28;19929;-70
2023/06/13 15:35:52;;;;;;;;;;;;;;;;;;5048620;28;19972;-70
2023/06/13 15:38:19;;;;;;;;;;;;;;;;;;5053323;28;19928;-72
2023/06/13 15:40:46;;;;;;;;;;;;;;;;;;5041972;28;20313;-71
2023/06/13 15:43:13;;;;;;;;;;;;;;;;;;5049419;28;19979;-72
2023/06/13 15:45:40;;;;;;;;;;;;;;;;;;5051990;28;20339;-72
2023/06/13 15:48:07;;;;;;;;;;;;;;;;;;5050551;28;19979;-71
2023/06/13 15:50:34;;;;;;;;;;;;;;;;;;5037832;28;19973;-71
2023/06/13 15:53:02;;;;;;;;;;;;;;;;;;5046503;28;20008;-72
2023/06/13 15:55:29;;;;;;;;;;;;;;;;;;5048997;28;19924;-72
2023/06/13 15:57:58;;;;;;;;;;;;;;;;;;5057309;28;19995;-73
2023/06/13 16:00:25;;;;;;;;;;;;;;;;;;5051443;28;19925;-71
2023/06/13 16:02:52;;;;;;;;;;;;;;;;;;5048997;28;19929;-71
2023/06/13 16:05:19;;;;;;;;;;;;;;;;;;5050130;28;19928;-71
2023/06/13 16:07:46;;;;;;;;;;;;;;;;;;5044518;28;19924;-72
2023/06/13 16:10:13;;;;;;;;;;;;;;;;;;5051658;28;20447;-71
2023/06/13 16:12:40;;;;;;;;;;;;;;;;;;5049623;28;19929;-72
2023/06/13 16:15:08;;;;;;;;;;;;;;;;;;5043699;28;19925;-71
2023/06/13 16:17:35;;;;;;;;;;;;;;;;;;5047147;28;20004;-71
2023/06/13 16:20:02;;;;;;;;;;;;;;;;;;5043469;28;20035;-71
2023/06/13 16:22:29;;;;;;;;;;;;;;;;;;5045657;28;19925;-71
2023/06/13 16:24:56;;;;;;;;;;;;;;;;;;5044649;28;20388;-71
2023/06/13 16:27:23;;;;;;;;;;;;;;;;;;5052685;28;19925;-71
2023/06/13 16:29:50;;;;;;;;;;;;;;;;;;5042421;28;20012;-71
2023/06/13 16:32:17;;;;;;;;;;;;;;;;;;5047136;28;19932;-71
2023/06/13 16:34:44;;;;;;;;;;;;;;;;;;5048376;28;19925;-71
2023/06/13 16:37:11;;;;;;;;;;;;;;;;;;5048513;28;19931;-71
2023/06/13 16:39:38;;;;;;;;;;;;;;;;;;5043671;28;19924;-71
2023/06/13 16:42:07;;;;;;;;;;;;;;;;;;5045538;28;20471;-71
2023/06/13 16:44:34;;;;;;;;;;;;;;;;;;5048640;28;19924;-71
2023/06/13 16:47:02;;;;;;;;;;;;;;;;;;5053546;28;19932;-71